Погода Чикилистланна неделю

Халиско, Мексика

23 - 29 февраля
  • 23февраля
    Сегодня
    +14°
    +30°
    Небольшая облачность
    ВремяПогодаТемператураВлажностьДавлениеВетер, м/сВероятность осадков
    00:00Ясно и безоблачно+16°C44 %631 мм0.9 м/с2 %
    03:00Ясно и безоблачно+14°C40 %630 мм1.0 м/с2 %
    06:00Ясно и безоблачно+15°C34 %630 мм1.3 м/с2 %
    09:00Ясно и безоблачно+17°C31 %631 мм1.2 м/с2 %
    12:00Практически безоблачно+25°C14 %634 мм1.4 м/с2 %
    15:00Небольшая облачность+29°C12 %632 мм1.5 м/с2 %
    18:00Практически безоблачно+27°C24 %632 мм0.7 м/с2 %
    21:00Ясно и безоблачно+18°C34 %630 мм0.8 м/с2 %
  • 24февраля
    Суббота
    +15°
    +30°
    Практически безоблачно
    ВремяПогодаТемператураВлажностьДавлениеВетер, м/сВероятность осадков
    00:00Ясно и безоблачно+16°C41 %630 мм0.9 м/с2 %
    03:00Ясно и безоблачно+15°C40 %630 мм0.7 м/с2 %
    06:00Ясно и безоблачно+15°C44 %630 мм0.9 м/с2 %
    09:00Ясно и безоблачно+18°C40 %633 мм1.2 м/с2 %
    12:00Ясно и безоблачно+27°C25 %635 мм1.0 м/с2 %
    15:00Практически безоблачно+29°C20 %634 мм0.9 м/с2 %
    18:00Ясно и безоблачно+27°C29 %633 мм1.9 м/с2 %
    21:00Ясно и безоблачно+18°C60 %632 мм1.3 м/с2 %
  • 25февраля
    Воскресенье
    +14°
    +30°
    Ясно и безоблачно
    ВремяПогодаТемператураВлажностьДавлениеВетер, м/сВероятность осадков
    00:00Ясно и безоблачно+17°C63 %632 мм0.7 м/с2 %
    03:00Ясно и безоблачно+15°C70 %631 мм0.7 м/с2 %
    06:00Практически безоблачно+15°C66 %632 мм0.4 м/с2 %
    09:00Ясно и безоблачно+19°C52 %635 мм0.7 м/с2 %
    12:00Ясно и безоблачно+26°C29 %636 мм1.7 м/с2 %
    15:00Ясно и безоблачно+29°C23 %635 мм1.8 м/с4 %
    18:00Ясно и безоблачно+28°C29 %634 мм0.8 м/с5 %
    21:00Ясно и безоблачно+19°C54 %633 мм0.9 м/с2 %
  • 26февраля
    Понедельник
    +13°
    +30°
    Небольшая облачность
    ВремяПогодаТемператураВлажностьДавлениеВетер, м/сВероятность осадков
    00:00Небольшая облачность+16°C58 %633 мм0.4 м/с2 %
    03:00Практически безоблачно+16°C55 %632 мм0.4 м/с2 %
    06:00Ясно и безоблачно+15°C44 %632 мм0.9 м/с2 %
    09:00Ясно и безоблачно+19°C28 %634 мм1.1 м/с2 %
    12:00Небольшая облачность+26°C16 %636 мм2.1 м/с2 %
    15:00Небольшая облачность+30°C14 %634 мм2.1 м/с2 %
    18:00Ясно и безоблачно+28°C27 %633 мм1.3 м/с3 %
    21:00Ясно и безоблачно+18°C62 %632 мм0.8 м/с2 %
Мы используем cookies
Соглашаюсь